Date,TemperatureHighF,TemperatureAvgF,TemperatureLowF,DewpointHighF,DewpointAvgF,DewpointLowF,HumidityHigh,HumidityAvg,HumidityLow,PressureMaxIn,PressureMinIn,WindSpeedMaxMPH,WindSpeedAvgMPH,GustSpeedMaxMPH,PrecipitationSumIn
2012-10-1,100.8,85.5,74.9,51.7,45.8,39.5,33,26,16,29.99,29.87,12,4,12,0.00
2012-10-2,100.4,85.2,76.1,59.6,45.9,35.7,53,27,13,29.94,29.88,14,4,14,0.00
2012-10-3,93.8,79.0,67.7,59.9,50.3,42.4,73,39,21,30.08,29.93,14,4,14,0.00
2012-10-4,84.1,70.4,61.6,62.1,57.6,54.5,85,66,38,30.15,30.07,12,3,12,0.00
2012-10-5,81.0,67.5,60.8,59.9,56.8,54.6,84,70,45,30.10,29.99,11,2,11,0.00
2012-10-6,83.3,68.9,60.1,60.3,56.5,50.9,83,67,35,30.02,29.94,12,3,12,0.00
2012-10-7,82.1,69.5,62.5,62.6,59.2,57.2,85,72,44,29.99,29.92,13,3,13,0.00
2012-10-8,80.8,67.5,61.9,62.7,58.8,55.8,87,75,48,30.03,29.96,14,3,14,0.00
2012-10-9,77.9,66.8,61.9,58.8,56.6,54.4,83,71,45,30.04,29.97,13,4,13,0.00
2012-10-10,72.9,64.1,59.6,57.6,54.8,53.1,83,72,54,30.04,29.95,14,4,14,0.00
2012-10-11,67.3,61.0,57.6,56.9,52.7,49.9,84,75,58,30.02,29.94,16,4,16,0.04
2012-10-12,68.0,60.5,55.8,57.6,52.6,49.2,87,76,53,30.19,30.01,11,3,11,0.26
2012-10-13,78.8,64.4,53.3,58.2,53.4,48.0,82,69,44,30.22,30.06,13,4,13,0.00
2012-10-14,92.3,75.2,62.1,58.3,50.3,41.9,75,46,23,30.09,29.98,13,4,13,0.00
2012-10-15,91.6,78.0,68.8,57.4,47.9,42.8,57,36,20,30.00,29.90,15,5,15,0.00
2012-10-16,93.1,78.4,68.0,52.6,44.8,40.5,47,32,19,29.93,29.79,11,5,11,0.00
2012-10-17,104.4,83.1,70.6,49.0,39.7,33.3,36,24,10,29.92,29.78,11,4,11,0.00
2012-10-18,80.8,70.0,65.5,63.5,58.6,37.8,86,69,22,30.10,29.91,12,3,12,0.00
2012-10-19,80.1,68.1,61.4,62.8,59.1,55.6,83,74,54,30.06,29.93,12,4,12,0.00
2012-10-20,68.8,64.9,63.0,61.9,59.9,58.6,87,84,77,29.97,29.89,10,2,10,0.01
2012-10-25,77.4,67.8,53.3,50.4,44.6,41.3,72,45,29,30.10,29.97,11,4,11,0.00
2012-10-26,90.7,73.8,61.6,42.9,32.9,19.0,49,25,11,30.05,29.94,12,2,12,0.00
2012-10-27,90.4,74.3,61.2,29.4,20.8,13.1,21,13,5,29.97,29.86,13,4,13,0.00
2012-10-28,86.8,73.6,63.7,31.6,25.1,19.4,24,17,10,30.07,29.94,11,4,11,0.00
2012-10-29,86.4,71.2,61.9,46.7,32.6,24.1,47,26,12,30.12,30.04,11,4,11,0.00
2012-10-30,83.3,68.1,59.8,53.1,41.4,31.2,72,41,22,30.10,30.02,10,4,10,0.00
2012-10-31,76.0,62.9,54.5,55.0,51.3,43.9,85,67,46,30.08,30.00,10,3,10,0.00